sensor_id;sensor_type;location;lat;lon;timestamp;pressure;altitude;pressure_sealevel;temperature;humidity
75460;BME280;64039;53.060;9.342;2024-02-14T00:00:09;101186.97;;;5.19;100.00
75460;BME280;64039;53.060;9.342;2024-02-14T00:02:45;101173.34;;;5.40;100.00
75460;BME280;64039;53.060;9.342;2024-02-14T00:05:16;101175.56;;;5.32;100.00
75460;BME280;64039;53.060;9.342;2024-02-14T00:07:41;101175.19;;;5.42;100.00
75460;BME280;64039;53.060;9.342;2024-02-14T00:10:07;101182.41;;;5.49;100.00
75460;BME280;64039;53.060;9.342;2024-02-14T00:12:33;101181.16;;;5.41;100.00
75460;BME280;64039;53.060;9.342;2024-02-14T00:14:59;101186.03;;;5.35;100.00
75460;BME280;64039;53.060;9.342;2024-02-14T00:17:24;101177.03;;;5.45;100.00
75460;BME280;64039;53.060;9.342;2024-02-14T00:19:50;101176.66;;;5.55;100.00
75460;BME280;64039;53.060;9.342;2024-02-14T00:22:16;101171.28;;;5.50;100.00
75460;BME280;64039;53.060;9.342;2024-02-14T00:24:41;101161.59;;;5.46;100.00
75460;BME280;64039;53.060;9.342;2024-02-14T00:27:07;101160.88;;;5.49;100.00
75460;BME280;64039;53.060;9.342;2024-02-14T00:29:32;101166.13;;;5.32;100.00
75460;BME280;64039;53.060;9.342;2024-02-14T00:32:00;101164.19;;;5.46;100.00
75460;BME280;64039;53.060;9.342;2024-02-14T00:34:25;101155.50;;;5.44;100.00
75460;BME280;64039;53.060;9.342;2024-02-14T00:36:51;101147.53;;;5.40;100.00
75460;BME280;64039;53.060;9.342;2024-02-14T00:39:16;101150.25;;;5.43;100.00
75460;BME280;64039;53.060;9.342;2024-02-14T00:41:42;101146.72;;;5.41;100.00
75460;BME280;64039;53.060;9.342;2024-02-14T00:44:07;101143.25;;;5.40;100.00
75460;BME280;64039;53.060;9.342;2024-02-14T00:46:32;101145.81;;;5.40;100.00
75460;BME280;64039;53.060;9.342;2024-02-14T00:48:58;101140.53;;;5.37;100.00
75460;BME280;64039;53.060;9.342;2024-02-14T00:51:24;101144.44;;;5.47;100.00
75460;BME280;64039;53.060;9.342;2024-02-14T00:53:52;101144.97;;;5.40;100.00
75460;BME280;64039;53.060;9.342;2024-02-14T00:56:17;101145.38;;;5.31;100.00
75460;BME280;64039;53.060;9.342;2024-02-14T00:58:43;101142.81;;;5.31;100.00
75460;BME280;64039;53.060;9.342;2024-02-14T01:01:09;101144.00;;;5.38;100.00
75460;BME280;64039;53.060;9.342;2024-02-14T01:03:34;101141.72;;;5.26;100.00
75460;BME280;64039;53.060;9.342;2024-02-14T01:06:00;101131.97;;;5.20;100.00
75460;BME280;64039;53.060;9.342;2024-02-14T01:08:25;101128.59;;;5.21;100.00
75460;BME280;64039;53.060;9.342;2024-02-14T01:10:51;101132.56;;;5.32;100.00
75460;BME280;64039;53.060;9.342;2024-02-14T01:13:18;101134.16;;;5.12;100.00
75460;BME280;64039;53.060;9.342;2024-02-14T01:15:43;101127.56;;;5.17;100.00
75460;BME280;64039;53.060;9.342;2024-02-14T01:18:09;101124.28;;;5.22;100.00
75460;BME280;64039;53.060;9.342;2024-02-14T01:20:35;101121.06;;;5.08;100.00
75460;BME280;64039;53.060;9.342;2024-02-14T01:23:01;101119.28;;;5.25;100.00
75460;BME280;64039;53.060;9.342;2024-02-14T01:25:26;101113.25;;;5.24;100.00
75460;BME280;64039;53.060;9.342;2024-02-14T01:27:52;101109.50;;;5.17;100.00
75460;BME280;64039;53.060;9.342;2024-02-14T01:30:18;101107.78;;;5.18;100.00
75460;BME280;64039;53.060;9.342;2024-02-14T01:32:44;101103.53;;;5.18;100.00
75460;BME280;64039;53.060;9.342;2024-02-14T01:35:09;101100.34;;;5.06;100.00
75460;BME280;64039;53.060;9.342;2024-02-14T01:37:35;101103.38;;;5.15;100.00
75460;BME280;64039;53.060;9.342;2024-02-14T01:40:01;101108.44;;;5.32;100.00
75460;BME280;64039;53.060;9.342;2024-02-14T01:42:26;101099.44;;;5.24;100.00
75460;BME280;64039;53.060;9.342;2024-02-14T01:44:53;101103.81;;;5.25;100.00
75460;BME280;64039;53.060;9.342;2024-02-14T01:47:20;101093.41;;;5.23;100.00
75460;BME280;64039;53.060;9.342;2024-02-14T01:49:46;101091.56;;;5.20;100.00
75460;BME280;64039;53.060;9.342;2024-02-14T01:52:13;101081.97;;;5.18;100.00
75460;BME280;64039;53.060;9.342;2024-02-14T01:54:39;101076.47;;;5.10;100.00
75460;BME280;64039;53.060;9.342;2024-02-14T01:57:05;101076.47;;;5.10;100.00
75460;BME280;64039;53.060;9.342;2024-02-14T01:59:32;101072.75;;;5.05;100.00
75460;BME280;64039;53.060;9.342;2024-02-14T02:02:00;101072.34;;;5.14;100.00
75460;BME280;64039;53.060;9.342;2024-02-14T02:04:25;101070.50;;;5.11;100.00
75460;BME280;64039;53.060;9.342;2024-02-14T02:06:51;101062.75;;;5.11;100.00
75460;BME280;64039;53.060;9.342;2024-02-14T02:09:21;101061.56;;;5.04;100.00
75460;BME280;64039;53.060;9.342;2024-02-14T02:11:48;101055.50;;;5.04;100.00
75460;BME280;64039;53.060;9.342;2024-02-14T02:14:14;101051.25;;;5.04;100.00
75460;BME280;64039;53.060;9.342;2024-02-14T02:16:40;101040.25;;;5.09;100.00
75460;BME280;64039;53.060;9.342;2024-02-14T02:19:05;101052.56;;;5.14;100.00
75460;BME280;64039;53.060;9.342;2024-02-14T02:21:34;101039.75;;;5.16;100.00
75460;BME280;64039;53.060;9.342;2024-02-14T02:24:00;101038.78;;;5.14;100.00
75460;BME280;64039;53.060;9.342;2024-02-14T02:26:26;101033.41;;;5.09;100.00
75460;BME280;64039;53.060;9.342;2024-02-14T02:28:52;101024.78;;;5.09;100.00
75460;BME280;64039;53.060;9.342;2024-02-14T02:31:18;101022.94;;;5.06;100.00
75460;BME280;64039;53.060;9.342;2024-02-14T02:33:43;101016.22;;;5.10;100.00
75460;BME280;64039;53.060;9.342;2024-02-14T02:36:09;101015.03;;;5.21;100.00
75460;BME280;64039;53.060;9.342;2024-02-14T02:38:35;101015.56;;;5.14;100.00
75460;BME280;64039;53.060;9.342;2024-02-14T02:41:05;101009.13;;;5.24;100.00
75460;BME280;64039;53.060;9.342;2024-02-14T02:43:34;101006.47;;;5.22;100.00
75460;BME280;64039;53.060;9.342;2024-02-14T02:46:00;101001.69;;;5.12;100.00
75460;BME280;64039;53.060;9.342;2024-02-14T02:48:26;101006.50;;;5.04;100.00
75460;BME280;64039;53.060;9.342;2024-02-14T02:50:52;101004.66;;;5.01;100.00
75460;BME280;64039;53.060;9.342;2024-02-14T02:53:18;100996.38;;;5.09;100.00
75460;BME280;64039;53.060;9.342;2024-02-14T02:55:44;100998.75;;;5.04;100.00
75460;BME280;64039;53.060;9.342;2024-02-14T02:58:10;100995.25;;;5.02;100.00
75460;BME280;64039;53.060;9.342;2024-02-14T03:00:35;100991.47;;;4.95;100.00
75460;BME280;64039;53.060;9.342;2024-02-14T03:03:01;100993.25;;;4.96;100.00
75460;BME280;64039;53.060;9.342;2024-02-14T03:05:28;100983.09;;;4.99;100.00
75460;BME280;64039;53.060;9.342;2024-02-14T03:07:56;100984.81;;;5.00;100.00
75460;BME280;64039;53.060;9.342;2024-02-14T03:10:23;100975.41;;;4.83;100.00
75460;BME280;64039;53.060;9.342;2024-02-14T03:12:50;100977.56;;;4.92;100.00
75460;BME280;64039;53.060;9.342;2024-02-14T03:15:17;100972.16;;;5.05;100.00
75460;BME280;64039;53.060;9.342;2024-02-14T03:17:43;100966.97;;;5.05;100.00
75460;BME280;64039;53.060;9.342;2024-02-14T03:20:11;100957.69;;;5.09;100.00
75460;BME280;64039;53.060;9.342;2024-02-14T03:22:39;100956.59;;;5.03;100.00
75460;BME280;64039;53.060;9.342;2024-02-14T03:25:18;100955.59;;;5.00;100.00
75460;BME280;64039;53.060;9.342;2024-02-14T03:27:43;100946.66;;;4.93;100.00
75460;BME280;64039;53.060;9.342;2024-02-14T03:30:20;100947.03;;;5.01;100.00
75460;BME280;64039;53.060;9.342;2024-02-14T03:32:46;100936.97;;;5.07;100.00
75460;BME280;64039;53.060;9.342;2024-02-14T03:35:12;100937.25;;;4.94;100.00
75460;BME280;64039;53.060;9.342;2024-02-14T03:37:40;100938.81;;;4.90;100.00
75460;BME280;64039;53.060;9.342;2024-02-14T03:40:06;100924.56;;;4.98;100.00
75460;BME280;64039;53.060;9.342;2024-02-14T03:42:33;100925.72;;;5.05;100.00
75460;BME280;64039;53.060;9.342;2024-02-14T03:44:59;100922.00;;;4.98;100.00
75460;BME280;64039;53.060;9.342;2024-02-14T03:47:29;100916.41;;;4.89;100.00
75460;BME280;64039;53.060;9.342;2024-02-14T03:49:56;100918.44;;;4.96;100.00
75460;BME280;64039;53.060;9.342;2024-02-14T03:52:22;100925.50;;;5.00;100.00
75460;BME280;64039;53.060;9.342;2024-02-14T03:54:48;100923.44;;;5.11;100.00
75460;BME280;64039;53.060;9.342;2024-02-14T03:57:13;100922.19;;;5.03;100.00
75460;BME280;64039;53.060;9.342;2024-02-14T03:59:39;100916.41;;;5.09;100.00
75460;BME280;64039;53.060;9.342;2024-02-14T04:02:05;100912.91;;;5.07;100.00
75460;BME280;64039;53.060;9.342;2024-02-14T04:04:37;100917.78;;;5.20;100.00
75460;BME280;64039;53.060;9.342;2024-02-14T04:07:05;100914.72;;;5.09;100.00
75460;BME280;64039;53.060;9.342;2024-02-14T04:09:32;100921.91;;;4.97;100.00
75460;BME280;64039;53.060;9.342;2024-02-14T04:11:58;100920.53;;;5.05;100.00
75460;BME280;64039;53.060;9.342;2024-02-14T04:14:24;100916.56;;;5.12;100.00
75460;BME280;64039;53.060;9.342;2024-02-14T04:16:49;100914.94;;;5.14;100.00
75460;BME280;64039;53.060;9.342;2024-02-14T04:19:14;100918.38;;;5.14;100.00
75460;BME280;64039;53.060;9.342;2024-02-14T04:21:43;100915.00;;;5.15;100.00
75460;BME280;64039;53.060;9.342;2024-02-14T04:24:08;100910.91;;;5.20;100.00
75460;BME280;64039;53.060;9.342;2024-02-14T04:26:34;100909.22;;;5.21;100.00
75460;BME280;64039;53.060;9.342;2024-02-14T04:29:00;100906.28;;;5.13;100.00
75460;BME280;64039;53.060;9.342;2024-02-14T04:31:25;100909.06;;;5.18;100.00
75460;BME280;64039;53.060;9.342;2024-02-14T04:33:52;100904.81;;;5.18;100.00
75460;BME280;64039;53.060;9.342;2024-02-14T04:36:19;100905.75;;;5.20;100.00
75460;BME280;64039;53.060;9.342;2024-02-14T04:38:46;100905.47;;;5.14;100.00
75460;BME280;64039;53.060;9.342;2024-02-14T04:41:12;100904.81;;;5.18;100.00
75460;BME280;64039;53.060;9.342;2024-02-14T04:43:38;100910.09;;;5.22;100.00
75460;BME280;64039;53.060;9.342;2024-02-14T04:46:04;100911.19;;;5.07;100.00
75460;BME280;64039;53.060;9.342;2024-02-14T04:48:32;100902.63;;;5.08;100.00
75460;BME280;64039;53.060;9.342;2024-02-14T04:50:58;100905.03;;;5.23;100.00
75460;BME280;64039;53.060;9.342;2024-02-14T04:53:23;100903.84;;;5.16;100.00
75460;BME280;64039;53.060;9.342;2024-02-14T04:55:49;100901.63;;;5.24;100.00
75460;BME280;64039;53.060;9.342;2024-02-14T04:58:14;100902.91;;;5.34;100.00
75460;BME280;64039;53.060;9.342;2024-02-14T05:00:40;100913.56;;;5.22;100.00
75460;BME280;64039;53.060;9.342;2024-02-14T05:03:05;100911.59;;;5.36;100.00
75460;BME280;64039;53.060;9.342;2024-02-14T05:05:31;100911.19;;;5.27;100.00
75460;BME280;64039;53.060;9.342;2024-02-14T05:07:59;100896.53;;;5.26;100.00
75460;BME280;64039;53.060;9.342;2024-02-14T05:10:24;100899.63;;;5.38;100.00
75460;BME280;64039;53.060;9.342;2024-02-14T05:12:50;100900.84;;;5.46;100.00
75460;BME280;64039;53.060;9.342;2024-02-14T05:15:15;100894.66;;;5.43;100.00
75460;BME280;64039;53.060;9.342;2024-02-14T05:17:44;100891.03;;;5.38;100.00
75460;BME280;64039;53.060;9.342;2024-02-14T05:20:10;100886.13;;;5.44;100.00
75460;BME280;64039;53.060;9.342;2024-02-14T05:22:37;100887.94;;;5.46;100.00
75460;BME280;64039;53.060;9.342;2024-02-14T05:25:03;100886.06;;;5.42;100.00
75460;BME280;64039;53.060;9.342;2024-02-14T05:27:30;100880.47;;;5.53;100.00
75460;BME280;64039;53.060;9.342;2024-02-14T05:29:55;100878.97;;;5.58;100.00
75460;BME280;64039;53.060;9.342;2024-02-14T05:32:21;100881.50;;;5.56;100.00
75460;BME280;64039;53.060;9.342;2024-02-14T05:34:46;100875.13;;;5.48;100.00
75460;BME280;64039;53.060;9.342;2024-02-14T05:37:12;100873.53;;;5.51;100.00
75460;BME280;64039;53.060;9.342;2024-02-14T05:39:39;100877.94;;;5.54;100.00
75460;BME280;64039;53.060;9.342;2024-02-14T05:42:04;100871.91;;;5.54;100.00
75460;BME280;64039;53.060;9.342;2024-02-14T05:44:30;100871.84;;;5.52;100.00
75460;BME280;64039;53.060;9.342;2024-02-14T05:46:56;100865.66;;;5.48;100.00
75460;BME280;64039;53.060;9.342;2024-02-14T05:49:22;100873.94;;;5.61;100.00
75460;BME280;64039;53.060;9.342;2024-02-14T05:51:47;100865.38;;;5.62;100.00
75460;BME280;64039;53.060;9.342;2024-02-14T05:54:13;100861.69;;;5.57;100.00
75460;BME280;64039;53.060;9.342;2024-02-14T05:56:38;100862.84;;;5.63;100.00
75460;BME280;64039;53.060;9.342;2024-02-14T05:59:04;100862.84;;;5.63;100.00
75460;BME280;64039;53.060;9.342;2024-02-14T06:01:30;100861.72;;;5.78;100.00
75460;BME280;64039;53.060;9.342;2024-02-14T06:03:55;100863.91;;;5.69;100.00
75460;BME280;64039;53.060;9.342;2024-02-14T06:06:21;100855.50;;;5.73;100.00
75460;BME280;64039;53.060;9.342;2024-02-14T06:08:46;100858.94;;;5.73;100.00
75460;BME280;64039;53.060;9.342;2024-02-14T06:11:12;100856.16;;;5.69;100.00
75460;BME280;64039;53.060;9.342;2024-02-14T06:13:39;100856.78;;;5.84;100.00
75460;BME280;64039;53.060;9.342;2024-02-14T06:16:05;100857.44;;;5.78;100.00
75460;BME280;64039;53.060;9.342;2024-02-14T06:18:30;100861.97;;;5.84;100.00
75460;BME280;64039;53.060;9.342;2024-02-14T06:20:56;100868.22;;;5.89;100.00
75460;BME280;64039;53.060;9.342;2024-02-14T06:23:22;100866.09;;;6.00;100.00
75460;BME280;64039;53.060;9.342;2024-02-14T06:25:47;100862.44;;;5.95;100.00
75460;BME280;64039;53.060;9.342;2024-02-14T06:28:13;100869.41;;;5.97;100.00
75460;BME280;64039;53.060;9.342;2024-02-14T06:30:38;100862.97;;;5.88;100.00
75460;BME280;64039;53.060;9.342;2024-02-14T06:33:04;100868.41;;;5.94;100.00
75460;BME280;64039;53.060;9.342;2024-02-14T06:35:29;100867.81;;;6.00;100.00
75460;BME280;64039;53.060;9.342;2024-02-14T06:37:55;100870.00;;;6.11;100.00
75460;BME280;64039;53.060;9.342;2024-02-14T06:40:21;100867.63;;;6.16;100.00
75460;BME280;64039;53.060;9.342;2024-02-14T06:42:47;100867.16;;;6.05;100.00
75460;BME280;64039;53.060;9.342;2024-02-14T06:45:16;100871.25;;;6.00;100.00
75460;BME280;64039;53.060;9.342;2024-02-14T06:47:41;100873.91;;;6.02;100.00
75460;BME280;64039;53.060;9.342;2024-02-14T06:50:07;100881.75;;;6.03;100.00
75460;BME280;64039;53.060;9.342;2024-02-14T06:52:33;100891.59;;;6.13;100.00
75460;BME280;64039;53.060;9.342;2024-02-14T06:54:58;100874.50;;;6.17;100.00
75460;BME280;64039;53.060;9.342;2024-02-14T06:57:25;100886.56;;;6.17;100.00
75460;BME280;64039;53.060;9.342;2024-02-14T06:59:50;100884.03;;;6.18;100.00
75460;BME280;64039;53.060;9.342;2024-02-14T07:02:16;100881.59;;;6.21;100.00
75460;BME280;64039;53.060;9.342;2024-02-14T07:04:41;100883.41;;;6.24;100.00
75460;BME280;64039;53.060;9.342;2024-02-14T07:07:07;100887.31;;;6.35;100.00
75460;BME280;64039;53.060;9.342;2024-02-14T07:09:33;100888.72;;;6.27;100.00
75460;BME280;64039;53.060;9.342;2024-02-14T07:12:01;100890.00;;;6.38;100.00
75460;BME280;64039;53.060;9.342;2024-02-14T07:14:27;100891.75;;;6.39;100.00
75460;BME280;64039;53.060;9.342;2024-02-14T07:16:52;100894.44;;;6.41;100.00
75460;BME280;64039;53.060;9.342;2024-02-14T07:19:18;100891.94;;;6.44;100.00
75460;BME280;64039;53.060;9.342;2024-02-14T07:21:43;100891.94;;;6.44;100.00
75460;BME280;64039;53.060;9.342;2024-02-14T07:24:09;100900.88;;;6.52;100.00
75460;BME280;64039;53.060;9.342;2024-02-14T07:26:34;100896.72;;;6.56;100.00
75460;BME280;64039;53.060;9.342;2024-02-14T07:29:00;100897.66;;;6.58;100.00
75460;BME280;64039;53.060;9.342;2024-02-14T07:31:29;100901.66;;;6.50;100.00
75460;BME280;64039;53.060;9.342;2024-02-14T07:34:00;100894.47;;;6.65;100.00
75460;BME280;64039;53.060;9.342;2024-02-14T07:36:31;100908.53;;;6.72;100.00
75460;BME280;64039;53.060;9.342;2024-02-14T07:38:57;100901.59;;;6.71;100.00
75460;BME280;64039;53.060;9.342;2024-02-14T07:41:23;100900.38;;;6.61;100.00
75460;BME280;64039;53.060;9.342;2024-02-14T07:43:48;100896.66;;;6.77;100.00
75460;BME280;64039;53.060;9.342;2024-02-14T07:46:20;100898.59;;;6.83;100.00
75460;BME280;64039;53.060;9.342;2024-02-14T07:48:47;100898.81;;;6.89;100.00
75460;BME280;64039;53.060;9.342;2024-02-14T07:51:14;100906.38;;;6.83;100.00
75460;BME280;64039;53.060;9.342;2024-02-14T07:53:39;100898.56;;;6.81;100.00
75460;BME280;64039;53.060;9.342;2024-02-14T07:56:05;100903.00;;;6.85;100.00
75460;BME280;64039;53.060;9.342;2024-02-14T07:58:30;100908.44;;;6.91;100.00
75460;BME280;64039;53.060;9.342;2024-02-14T08:00:56;100910.94;;;6.90;100.00
75460;BME280;64039;53.060;9.342;2024-02-14T08:03:21;100915.34;;;6.92;100.00
75460;BME280;64039;53.060;9.342;2024-02-14T08:05:47;100911.59;;;7.07;100.00
75460;BME280;64039;53.060;9.342;2024-02-14T08:08:12;100911.69;;;7.10;100.00
75460;BME280;64039;53.060;9.342;2024-02-14T08:10:37;100920.69;;;7.20;100.00
75460;BME280;64039;53.060;9.342;2024-02-14T08:13:04;100922.44;;;7.21;100.00
75460;BME280;64039;53.060;9.342;2024-02-14T08:15:29;100919.69;;;7.16;100.00
75460;BME280;64039;53.060;9.342;2024-02-14T08:17:55;100919.91;;;7.22;100.00
75460;BME280;64039;53.060;9.342;2024-02-14T08:20:22;100924.44;;;7.28;100.00
75460;BME280;64039;53.060;9.342;2024-02-14T08:22:48;100921.84;;;7.28;100.00
75460;BME280;64039;53.060;9.342;2024-02-14T08:25:14;100927.41;;;7.39;100.00
75460;BME280;64039;53.060;9.342;2024-02-14T08:27:39;100931.94;;;7.45;100.00
75460;BME280;64039;53.060;9.342;2024-02-14T08:30:05;100932.97;;;7.50;100.00
75460;BME280;64039;53.060;9.342;2024-02-14T08:32:32;100929.50;;;7.49;100.00
75460;BME280;64039;53.060;9.342;2024-02-14T08:34:58;100934.28;;;7.63;100.00
75460;BME280;64039;53.060;9.342;2024-02-14T08:37:23;100928.97;;;7.60;100.00
75460;BME280;64039;53.060;9.342;2024-02-14T08:39:50;100932.50;;;7.62;100.00
75460;BME280;64039;53.060;9.342;2024-02-14T08:42:15;100934.03;;;7.81;100.00
75460;BME280;64039;53.060;9.342;2024-02-14T08:44:41;100932.22;;;7.78;100.00
75460;BME280;64039;53.060;9.342;2024-02-14T08:47:06;100933.44;;;7.88;100.00
75460;BME280;64039;53.060;9.342;2024-02-14T08:49:32;100928.97;;;7.84;100.00
75460;BME280;64039;53.060;9.342;2024-02-14T08:51:57;100934.41;;;7.92;100.00
75460;BME280;64039;53.060;9.342;2024-02-14T08:54:23;100937.00;;;7.92;100.00
75460;BME280;64039;53.060;9.342;2024-02-14T08:56:48;100942.34;;;7.96;100.00
75460;BME280;64039;53.060;9.342;2024-02-14T08:59:14;100942.66;;;8.06;100.00
75460;BME280;64039;53.060;9.342;2024-02-14T09:01:39;100940.09;;;8.07;100.00
75460;BME280;64039;53.060;9.342;2024-02-14T09:04:05;100941.91;;;8.10;100.00
75460;BME280;64039;53.060;9.342;2024-02-14T09:06:30;100948.44;;;8.24;100.00
75460;BME280;64039;53.060;9.342;2024-02-14T09:08:57;100943.84;;;8.15;100.00
75460;BME280;64039;53.060;9.342;2024-02-14T09:11:23;100954.38;;;8.20;100.00
75460;BME280;64039;53.060;9.342;2024-02-14T09:13:48;100952.78;;;8.25;100.00
75460;BME280;64039;53.060;9.342;2024-02-14T09:16:16;100958.06;;;8.27;100.00
75460;BME280;64039;53.060;9.342;2024-02-14T09:18:42;100960.63;;;8.27;100.00
75460;BME280;64039;53.060;9.342;2024-02-14T09:21:10;100956.66;;;8.38;100.00
75460;BME280;64039;53.060;9.342;2024-02-14T09:23:35;100961.84;;;8.38;100.00
75460;BME280;64039;53.060;9.342;2024-02-14T09:26:04;100954.91;;;8.37;100.00
75460;BME280;64039;53.060;9.342;2024-02-14T09:28:29;100962.03;;;8.44;100.00
75460;BME280;64039;53.060;9.342;2024-02-14T09:30:55;100963.19;;;8.53;100.00
75460;BME280;64039;53.060;9.342;2024-02-14T09:33:21;100962.81;;;8.68;100.00
75460;BME280;64039;53.060;9.342;2024-02-14T09:35:46;100964.47;;;8.65;100.00
75460;BME280;64039;53.060;9.342;2024-02-14T09:38:13;100964.47;;;8.65;100.00
75460;BME280;64039;53.060;9.342;2024-02-14T09:40:42;100961.34;;;8.76;100.00
75460;BME280;64039;53.060;9.342;2024-02-14T09:43:38;100963.91;;;8.74;100.00
75460;BME280;64039;53.060;9.342;2024-02-14T09:46:07;100964.84;;;8.76;100.00
75460;BME280;64039;53.060;9.342;2024-02-14T09:48:33;100963.06;;;8.75;100.00
75460;BME280;64039;53.060;9.342;2024-02-14T09:50:59;100962.44;;;8.84;100.00
75460;BME280;64039;53.060;9.342;2024-02-14T09:53:28;100963.25;;;8.81;100.00
75460;BME280;64039;53.060;9.342;2024-02-14T09:55:54;100961.91;;;8.94;100.00
75460;BME280;64039;53.060;9.342;2024-02-14T09:58:20;100958.78;;;9.06;100.00
75460;BME280;64039;53.060;9.342;2024-02-14T10:00:46;100969.34;;;9.12;100.00
75460;BME280;64039;53.060;9.342;2024-02-14T10:03:12;100979.72;;;9.11;100.00
75460;BME280;64039;53.060;9.342;2024-02-14T10:05:37;100970.13;;;9.08;100.00
75460;BME280;64039;53.060;9.342;2024-02-14T10:08:03;100978.03;;;9.13;100.00
75460;BME280;64039;53.060;9.342;2024-02-14T10:10:31;100977.91;;;9.08;100.00
75460;BME280;64039;53.060;9.342;2024-02-14T10:12:56;100985.00;;;9.14;100.00
75460;BME280;64039;53.060;9.342;2024-02-14T10:15:23;100992.88;;;9.17;100.00
75460;BME280;64039;53.060;9.342;2024-02-14T10:17:48;100984.69;;;9.34;100.00
75460;BME280;64039;53.060;9.342;2024-02-14T10:20:17;100988.72;;;9.22;100.00
75460;BME280;64039;53.060;9.342;2024-02-14T10:22:43;100993.25;;;9.30;100.00
75460;BME280;64039;53.060;9.342;2024-02-14T10:25:09;100996.84;;;9.35;100.00
75460;BME280;64039;53.060;9.342;2024-02-14T10:27:38;101008.91;;;9.33;100.00
75460;BME280;64039;53.060;9.342;2024-02-14T10:30:08;101009.94;;;9.38;100.00
75460;BME280;64039;53.060;9.342;2024-02-14T10:32:35;101011.97;;;9.48;100.00
75460;BME280;64039;53.060;9.342;2024-02-14T10:35:04;101007.78;;;9.53;100.00
75460;BME280;64039;53.060;9.342;2024-02-14T10:37:30;101008.06;;;9.64;100.00
75460;BME280;64039;53.060;9.342;2024-02-14T10:39:56;101021.91;;;9.63;100.00
75460;BME280;64039;53.060;9.342;2024-02-14T10:42:24;101017.31;;;9.54;100.00
75460;BME280;64039;53.060;9.342;2024-02-14T10:44:50;101014.06;;;9.62;100.00
75460;BME280;64039;53.060;9.342;2024-02-14T10:47:19;101021.28;;;9.72;100.00
75460;BME280;64039;53.060;9.342;2024-02-14T10:49:47;101022.28;;;9.77;100.00
75460;BME280;64039;53.060;9.342;2024-02-14T10:52:15;101023.09;;;9.74;100.00
75460;BME280;64039;53.060;9.342;2024-02-14T10:54:43;101019.16;;;9.90;100.00
75460;BME280;64039;53.060;9.342;2024-02-14T10:57:15;101022.50;;;9.85;100.00
75460;BME280;64039;53.060;9.342;2024-02-14T10:59:43;101021.69;;;9.86;100.00
75460;BME280;64039;53.060;9.342;2024-02-14T11:02:10;101012.84;;;9.81;100.00
75460;BME280;64039;53.060;9.342;2024-02-14T11:04:36;101025.69;;;9.74;100.00
75460;BME280;64039;53.060;9.342;2024-02-14T11:07:02;101031.00;;;9.79;100.00
75460;BME280;64039;53.060;9.342;2024-02-14T11:09:32;101031.22;;;9.87;100.00
75460;BME280;64039;53.060;9.342;2024-02-14T11:12:01;101029.94;;;9.71;100.00
75460;BME280;64039;53.060;9.342;2024-02-14T11:14:31;101033.44;;;9.73;100.00
75460;BME280;64039;53.060;9.342;2024-02-14T11:16:59;101033.63;;;9.79;100.00
75460;BME280;64039;53.060;9.342;2024-02-14T11:19:31;101030.09;;;9.77;100.00
75460;BME280;64039;53.060;9.342;2024-02-14T11:22:10;101029.13;;;9.73;100.00
75460;BME280;64039;53.060;9.342;2024-02-14T11:24:37;101029.22;;;9.77;100.00
75460;BME280;64039;53.060;9.342;2024-02-14T11:27:02;101037.28;;;9.86;100.00
75460;BME280;64039;53.060;9.342;2024-02-14T11:29:32;101034.53;;;9.81;100.00
75460;BME280;64039;53.060;9.342;2024-02-14T11:31:58;101033.50;;;9.74;100.00
75460;BME280;64039;53.060;9.342;2024-02-14T11:34:25;101041.47;;;9.82;100.00
75460;BME280;64039;53.060;9.342;2024-02-14T11:36:51;101042.09;;;9.72;100.00
75460;BME280;64039;53.060;9.342;2024-02-14T11:39:17;101049.88;;;9.72;100.00
75460;BME280;64039;53.060;9.342;2024-02-14T11:41:42;101044.00;;;9.79;100.00
75460;BME280;64039;53.060;9.342;2024-02-14T11:44:08;101048.38;;;9.80;100.00
75460;BME280;64039;53.060;9.342;2024-02-14T11:46:34;101051.78;;;9.78;100.00
75460;BME280;64039;53.060;9.342;2024-02-14T11:49:01;101051.81;;;9.79;100.00
75460;BME280;64039;53.060;9.342;2024-02-14T11:51:32;101048.16;;;9.72;100.00
75460;BME280;64039;53.060;9.342;2024-02-14T11:53:59;101052.75;;;9.81;100.00
75460;BME280;64039;53.060;9.342;2024-02-14T11:56:35;101050.22;;;9.84;100.00
75460;BME280;64039;53.060;9.342;2024-02-14T11:59:03;101054.59;;;9.87;100.00
75460;BME280;64039;53.060;9.342;2024-02-14T12:01:38;101051.19;;;9.88;100.00
75460;BME280;64039;53.060;9.342;2024-02-14T12:04:05;101056.38;;;9.88;100.00
75460;BME280;64039;53.060;9.342;2024-02-14T12:06:34;101059.94;;;9.91;100.00
75460;BME280;64039;53.060;9.342;2024-02-14T12:09:01;101057.44;;;9.95;100.00
75460;BME280;64039;53.060;9.342;2024-02-14T12:11:36;101051.31;;;9.93;100.00
75460;BME280;64039;53.060;9.342;2024-02-14T12:14:08;101055.28;;;9.80;100.00
75460;BME280;64039;53.060;9.342;2024-02-14T12:16:37;101059.91;;;9.90;100.00
75460;BME280;64039;53.060;9.342;2024-02-14T12:19:10;101060.38;;;10.07;100.00
75460;BME280;64039;53.060;9.342;2024-02-14T12:21:41;101070.78;;;10.07;100.00
75460;BME280;64039;53.060;9.342;2024-02-14T12:24:07;101061.97;;;10.02;100.00
75460;BME280;64039;53.060;9.342;2024-02-14T12:26:34;101063.81;;;10.06;100.00
75460;BME280;64039;53.060;9.342;2024-02-14T12:29:04;101066.19;;;9.98;100.00
75460;BME280;64039;53.060;9.342;2024-02-14T12:31:30;101059.88;;;9.88;100.00
75460;BME280;64039;53.060;9.342;2024-02-14T12:33:57;101070.47;;;9.96;100.00
75460;BME280;64039;53.060;9.342;2024-02-14T12:36:25;101068.91;;;10.01;100.00
75460;BME280;64039;53.060;9.342;2024-02-14T12:38:51;101057.94;;;10.13;100.00
75460;BME280;64039;53.060;9.342;2024-02-14T12:41:18;101059.72;;;10.14;100.00
75460;BME280;64039;53.060;9.342;2024-02-14T12:43:44;101056.31;;;10.17;100.00
75460;BME280;64039;53.060;9.342;2024-02-14T12:46:09;101060.59;;;10.16;100.00